Time;durP1;ratioP1;P1;durP2;ratioP2;P2;SDS_P1;SDS_P2;PMS_P1;PMS_P2;Temp;Humidity;BMP_temperature;BMP_pressure;BME280_temperature;BME280_humidity;BME280_pressure;Samples;Min_cycle;Max_cycle;Signal;HPM_P1;HPM_P2
2021/12/23 00:01:27;;;;;;;59.60;23.50;;;;;;;-1.71;76.55;101607.69;5049430;28;20069;-67
2021/12/23 00:03:55;;;;;;;58.78;23.45;;;;;;;-1.70;76.70;101608.56;5053710;28;20094;-67
2021/12/23 00:06:21;;;;;;;60.47;23.77;;;;;;;-1.71;77.01;101615.41;5049939;28;20076;-67
2021/12/23 00:08:48;;;;;;;53.03;22.02;;;;;;;-1.82;77.35;101616.97;5049618;28;20072;-67
2021/12/23 00:11:14;;;;;;;67.60;23.83;;;;;;;-1.80;77.43;101612.69;5049039;28;20095;-67
2021/12/23 00:13:49;;;;;;;63.15;22.00;;;;;;;-1.65;76.71;101605.16;5049250;28;20171;-67
2021/12/23 00:16:18;;;;;;;55.15;21.33;;;;;;;-1.46;76.31;101613.97;5048437;28;20040;-67
2021/12/23 00:18:51;;;;;;;51.67;22.90;;;;;;;-1.81;77.38;101599.84;5049791;28;20571;-67
2021/12/23 00:24:03;;;;;;;50.38;21.67;;;;;;;-1.75;77.02;101589.63;5047616;28;20507;-67
2021/12/23 00:26:30;;;;;;;58.80;22.13;;;;;;;-2.28;79.14;101584.66;5058247;28;20044;-67
2021/12/23 00:28:58;;;;;;;55.38;21.08;;;;;;;-2.13;78.90;101594.28;5045218;28;20480;-67
2021/12/23 00:31:24;;;;;;;57.15;21.67;;;;;;;-1.79;78.18;101585.28;5043558;28;20094;-67
2021/12/23 00:33:50;;;;;;;56.95;22.58;;;;;;;-1.59;76.83;101579.50;5050401;28;20130;-67
2021/12/23 00:36:18;;;;;;;68.07;23.85;;;;;;;-1.72;77.54;101576.78;5048831;28;20099;-67
2021/12/23 00:38:49;;;;;;;60.10;21.92;;;;;;;-1.54;76.94;101574.44;5046324;28;20118;-67
2021/12/23 00:41:16;;;;;;;54.55;21.27;;;;;;;-1.77;77.63;101576.75;5046896;28;20424;-67
2021/12/23 00:43:42;;;;;;;63.65;21.83;;;;;;;-2.05;78.22;101565.28;5046546;28;20052;-67
2021/12/23 00:46:09;;;;;;;54.75;22.27;;;;;;;-2.14;78.96;101557.44;5058236;28;20118;-67
2021/12/23 00:48:36;;;;;;;56.35;22.52;;;;;;;-2.00;78.14;101571.34;5059516;28;20122;-67
2021/12/23 00:51:02;;;;;;;48.83;21.25;;;;;;;-1.96;77.73;101564.53;5050426;28;20409;-67
2021/12/23 00:53:36;;;;;;;59.28;21.98;;;;;;;-2.18;78.95;101565.09;5046223;28;20044;-67
2021/12/23 00:56:03;;;;;;;57.65;22.60;;;;;;;-2.34;79.58;101569.16;5047017;28;20477;-67
2021/12/23 00:58:29;;;;;;;51.45;21.20;;;;;;;-2.05;78.61;101560.13;5046872;28;20072;-67
2021/12/23 01:00:58;;;;;;;57.65;20.80;;;;;;;-2.01;78.44;101554.19;5046891;28;20068;-67
2021/12/23 01:03:24;;;;;;;52.35;22.10;;;;;;;-2.48;80.25;101560.41;5045980;28;20049;-67
2021/12/23 01:05:50;;;;;;;65.05;23.63;;;;;;;-2.48;80.28;101550.97;5046368;28;20080;-67
2021/12/23 01:08:19;;;;;;;52.13;19.60;;;;;;;-2.45;80.22;101542.47;5044243;28;20048;-67
2021/12/23 01:10:49;;;;;;;52.25;19.25;;;;;;;-2.25;79.62;101546.16;5045970;28;20404;-67
2021/12/23 01:13:17;;;;;;;47.67;18.33;;;;;;;-1.63;77.64;101546.06;5046903;28;20118;-67
2021/12/23 01:16:02;;;;;;;58.15;22.27;;;;;;;-1.77;76.88;101548.47;5040940;28;20492;-67
2021/12/23 01:18:32;;;;;;;53.95;22.00;;;;;;;-1.66;76.77;101551.16;5039920;28;20042;-67
2021/12/23 01:21:15;;;;;;;50.63;20.65;;;;;;;-2.00;77.66;101543.06;5035319;28;20057;-67
2021/12/23 01:23:44;;;;;;;55.13;22.55;;;;;;;-2.03;78.21;101537.00;5047777;28;20090;-67
2021/12/23 01:26:17;;;;;;;54.15;21.60;;;;;;;-1.74;77.33;101543.38;5048048;28;20049;-67
2021/12/23 01:28:44;;;;;;;50.85;21.50;;;;;;;-1.74;77.12;101527.09;5046917;28;20402;-67
2021/12/23 01:31:10;;;;;;;57.17;22.58;;;;;;;-1.75;76.57;101525.34;5048229;28;20064;-67
2021/12/23 01:33:36;;;;;;;54.55;22.10;;;;;;;-1.65;76.32;101528.03;5053007;28;20097;-67
2021/12/23 01:36:03;;;;;;;52.22;20.38;;;;;;;-1.54;76.20;101526.44;5048660;28;20045;-67
2021/12/23 01:38:30;;;;;;;58.08;21.42;;;;;;;-1.52;75.86;101511.03;5047719;28;20076;-67
2021/12/23 01:40:57;;;;;;;55.33;20.73;;;;;;;-1.67;76.54;101501.47;5047520;28;20072;-67
2021/12/23 01:43:24;;;;;;;50.63;20.50;;;;;;;-1.75;76.62;101503.09;5048074;28;20416;-67
2021/12/23 01:45:51;;;;;;;57.50;22.00;;;;;;;-1.52;75.84;101495.59;5047921;28;20099;-67
2021/12/23 01:48:19;;;;;;;63.42;21.70;;;;;;;-1.67;75.84;101493.75;5052186;28;20075;-67
2021/12/23 01:50:46;;;;;;;52.10;21.45;;;;;;;-1.27;74.88;101473.50;5052180;28;20126;-67
2021/12/23 01:53:13;;;;;;;55.47;20.92;;;;;;;-1.47;75.58;101475.91;5052403;28;20072;-67
2021/12/23 01:55:42;;;;;;;52.38;19.48;;;;;;;-2.09;77.46;101462.44;5052903;28;20507;-67
2021/12/23 01:58:10;;;;;;;51.70;19.52;;;;;;;-1.75;76.42;101466.22;5051728;28;20041;-67
2021/12/23 02:00:40;;;;;;;55.95;21.50;;;;;;;-1.81;76.31;101455.91;5048190;28;20041;-67
2021/12/23 02:03:06;;;;;;;41.35;19.38;;;;;;;-2.07;78.02;101463.31;5054029;28;20265;-67
2021/12/23 02:05:33;;;;;;;59.22;21.90;;;;;;;-1.70;76.07;101459.44;5052294;28;20081;-67
2021/12/23 02:08:00;;;;;;;46.50;17.92;;;;;;;-2.27;77.92;101452.81;5052379;28;20048;-67
2021/12/23 02:10:27;;;;;;;56.08;22.35;;;;;;;-2.09;77.70;101463.31;5050846;28;20077;-67
2021/12/23 02:12:54;;;;;;;54.97;21.75;;;;;;;-2.00;77.57;101450.56;5052027;28;20551;-67
2021/12/23 02:15:21;;;;;;;55.20;22.52;;;;;;;-1.94;77.63;101444.59;5051882;28;20041;-67
2021/12/23 02:17:50;;;;;;;55.55;21.50;;;;;;;-1.81;76.61;101440.47;5051057;28;20041;-67
2021/12/23 02:20:19;;;;;;;49.28;19.73;;;;;;;-1.74;76.46;101437.97;5051080;28;20122;-67
2021/12/23 02:22:46;;;;;;;46.53;18.77;;;;;;;-1.91;77.22;101433.50;5051717;28;20040;-67
2021/12/23 02:25:14;;;;;;;51.75;21.38;;;;;;;-1.73;76.74;101433.66;5051463;28;20551;-67
2021/12/23 02:27:41;;;;;;;55.38;19.95;;;;;;;-1.54;75.36;101430.41;5052161;28;20099;-67
2021/12/23 02:30:12;;;;;;;46.17;19.38;;;;;;;-1.48;75.40;101422.78;5051907;28;20513;-67
2021/12/23 02:32:39;;;;;;;59.60;21.85;;;;;;;-1.81;75.95;101417.34;5051272;28;20401;-67
2021/12/23 02:35:10;;;;;;;49.65;20.27;;;;;;;-1.99;77.41;101412.84;5052991;28;20065;-67
2021/12/23 02:37:37;;;;;;;46.63;19.10;;;;;;;-1.56;76.06;101397.00;5049493;28;20072;-67
2021/12/23 02:40:05;;;;;;;49.50;20.00;;;;;;;-1.77;75.72;101396.78;5046015;28;20547;-67
2021/12/23 02:42:31;;;;;;;46.50;17.45;;;;;;;-1.33;74.44;101386.00;5044323;28;20114;-67
2021/12/23 02:44:58;;;;;;;48.13;20.48;;;;;;;-1.24;74.57;101378.34;5051215;28;20073;-67
2021/12/23 02:47:25;;;;;;;50.35;19.88;;;;;;;-1.55;74.79;101379.81;5051384;28;20476;-67
2021/12/23 02:49:51;;;;;;;51.00;18.52;;;;;;;-1.61;75.43;101364.34;5049742;28;20048;-67
2021/12/23 02:52:17;;;;;;;53.28;19.55;;;;;;;-1.29;74.28;101362.88;5030054;28;20042;-67
2021/12/23 02:54:54;;;;;;;52.03;18.70;;;;;;;-1.57;75.41;101351.53;5047579;28;20489;-67
2021/12/23 02:57:21;;;;;;;43.20;18.48;;;;;;;-1.36;74.56;101366.25;5050418;28;20064;-67
2021/12/23 02:59:47;;;;;;;48.72;18.80;;;;;;;-1.44;74.96;101362.75;5050889;28;20052;-67
2021/12/23 03:02:13;;;;;;;47.92;18.27;;;;;;;-1.72;75.39;101358.28;5049853;28;20041;-67
2021/12/23 03:04:40;;;;;;;46.30;18.27;;;;;;;-2.09;77.09;101359.66;5052426;28;20045;-67
2021/12/23 03:07:06;;;;;;;46.45;18.35;;;;;;;-1.50;75.79;101337.00;5050421;28;20072;-67
2021/12/23 03:09:32;;;;;;;47.67;17.60;;;;;;;-1.56;75.54;101332.69;5050568;28;20200;-67
2021/12/23 03:12:00;;;;;;;48.67;17.27;;;;;;;-1.83;76.71;101322.19;5050654;28;20072;-67
2021/12/23 03:14:26;;;;;;;43.30;17.17;;;;;;;-1.51;75.87;101314.69;5050899;28;20497;-67
2021/12/23 03:16:53;;;;;;;53.20;17.88;;;;;;;-1.57;75.89;101314.69;5050903;28;20072;-67
2021/12/23 03:19:19;;;;;;;50.17;20.05;;;;;;;-1.43;75.28;101307.03;5050545;28;20573;-67
2021/12/23 03:21:45;;;;;;;44.28;17.92;;;;;;;-1.60;75.35;101309.53;5049967;28;20091;-67
2021/12/23 03:24:15;;;;;;;44.83;17.20;;;;;;;-1.59;75.98;101304.38;5051020;28;20049;-67
2021/12/23 03:26:41;;;;;;;41.88;17.27;;;;;;;-1.52;75.71;101310.44;5052904;28;20073;-67
2021/12/23 03:29:11;;;;;;;44.75;16.75;;;;;;;-1.60;76.23;101309.53;5049988;28;20078;-67
2021/12/23 03:31:37;;;;;;;42.83;17.17;;;;;;;-1.76;76.88;101302.53;5050627;28;20443;-67
2021/12/23 03:34:04;;;;;;;42.55;17.88;;;;;;;-1.59;76.37;101295.81;5050803;28;20076;-67
2021/12/23 03:36:30;;;;;;;47.55;16.02;;;;;;;-1.92;77.20;101290.44;5050318;28;20455;-67
2021/12/23 03:38:57;;;;;;;41.78;15.93;;;;;;;-2.00;77.27;101278.41;5049657;28;20134;-67
2021/12/23 03:41:23;;;;;;;48.35;17.50;;;;;;;-2.04;78.02;101281.78;5050099;28;20118;-67
2021/12/23 03:43:49;;;;;;;41.33;17.05;;;;;;;-1.88;77.65;101279.31;5050504;28;20134;-67
2021/12/23 03:46:17;;;;;;;45.03;18.33;;;;;;;-1.61;76.92;101274.38;5047750;28;20485;-67
2021/12/23 03:48:43;;;;;;;43.45;17.27;;;;;;;-2.15;77.84;101251.72;5050052;28;20073;-67
2021/12/23 03:51:10;;;;;;;40.45;16.98;;;;;;;-2.18;78.47;101267.94;5050677;28;20073;-67
2021/12/23 03:53:36;;;;;;;40.95;16.30;;;;;;;-1.65;76.94;101259.75;5050327;28;20068;-67
2021/12/23 03:56:03;;;;;;;41.50;15.85;;;;;;;-1.91;77.74;101251.00;5050125;28;20048;-67
2021/12/23 03:58:29;;;;;;;43.17;16.83;;;;;;;-1.98;77.34;101245.84;5049846;28;20045;-67
2021/12/23 04:00:55;;;;;;;46.80;18.75;;;;;;;-2.04;78.38;101232.97;5045868;28;20114;-67
2021/12/23 04:03:23;;;;;;;40.22;17.48;;;;;;;-1.83;77.67;101231.38;5053176;28;20076;-67
2021/12/23 04:05:49;;;;;;;43.05;18.60;;;;;;;-1.89;77.57;101223.63;5049225;28;20126;-67
2021/12/23 04:08:16;;;;;;;42.50;17.75;;;;;;;-1.77;77.27;101219.41;5049988;28;20450;-67
2021/12/23 04:10:42;;;;;;;39.58;15.95;;;;;;;-1.71;76.96;101218.59;5047924;28;20072;-67
2021/12/23 04:13:09;;;;;;;41.97;19.55;;;;;;;-1.52;76.46;101215.28;5056573;28;20481;-67
2021/12/23 04:15:36;;;;;;;35.88;16.05;;;;;;;-1.41;75.82;101215.31;5047256;28;20073;-67
2021/12/23 04:18:03;;;;;;;38.15;15.98;;;;;;;-1.22;75.31;101199.94;5049086;28;20068;-68
2021/12/23 04:20:35;;;;;;;36.67;15.90;;;;;;;-1.07;74.56;101194.84;5049935;28;20056;-67
2021/12/23 04:23:03;;;;;;;41.13;16.30;;;;;;;-1.34;75.27;101212.78;5037759;28;20045;-67
2021/12/23 04:25:29;;;;;;;34.70;16.13;;;;;;;-1.64;76.46;101199.78;5035124;28;20512;-67
2021/12/23 04:27:58;;;;;;;38.35;16.38;;;;;;;-2.04;78.26;101179.00;5049423;28;20479;-66
2021/12/23 04:30:26;;;;;;;38.08;15.35;;;;;;;-1.94;77.94;101209.88;5049071;28;20067;-67
2021/12/23 04:32:53;;;;;;;44.85;17.40;;;;;;;-1.70;77.27;101204.91;5048990;28;20044;-66
2021/12/23 04:35:20;;;;;;;32.30;15.18;;;;;;;-1.98;77.77;101194.44;5051954;28;20064;-66
2021/12/23 04:37:47;;;;;;;41.47;15.77;;;;;;;-2.06;78.37;101184.97;5049680;28;20041;-66
2021/12/23 04:40:14;;;;;;;42.65;17.70;;;;;;;-2.07;78.85;101188.41;5042907;28;20049;-66
2021/12/23 04:42:41;;;;;;;41.00;16.42;;;;;;;-1.91;78.16;101174.78;5050009;28;20045;-66
2021/12/23 04:45:09;;;;;;;39.13;16.02;;;;;;;-1.75;77.74;101184.31;5049670;28;20122;-66
2021/12/23 04:47:37;;;;;;;43.35;16.33;;;;;;;-1.80;77.28;101168.00;5049632;28;20048;-66
2021/12/23 04:50:05;;;;;;;44.00;15.77;;;;;;;-1.54;76.10;101150.97;5049322;28;20712;-66
2021/12/23 04:52:31;;;;;;;37.78;16.65;;;;;;;-1.45;76.21;101136.44;5049858;28;20095;-67
2021/12/23 04:54:59;;;;;;;42.13;16.42;;;;;;;-1.89;77.22;101136.25;5049359;28;20138;-67
2021/12/23 04:57:25;;;;;;;40.42;16.85;;;;;;;-1.73;77.17;101135.44;5049131;28;20049;-67
2021/12/23 04:59:52;;;;;;;40.60;15.73;;;;;;;-1.64;76.79;101132.94;5047264;28;20072;-67
2021/12/23 05:02:19;;;;;;;38.17;15.30;;;;;;;-1.89;77.26;101133.69;5048286;28;20056;-67
2021/12/23 05:04:46;;;;;;;33.35;14.48;;;;;;;-2.27;78.77;101139.44;5050113;28;20552;-67
2021/12/23 05:07:12;;;;;;;37.63;13.93;;;;;;;-2.16;78.78;101134.38;5048532;28;20442;-67
2021/12/23 05:09:38;;;;;;;33.10;14.45;;;;;;;-1.83;77.88;101126.00;5046869;28;20098;-67
2021/12/23 05:12:08;;;;;;;43.20;16.48;;;;;;;-1.56;77.05;101113.25;5048309;28;20489;-67
2021/12/23 05:14:34;;;;;;;46.72;16.55;;;;;;;-1.52;76.55;101131.28;5043107;28;20483;-68
2021/12/23 05:17:00;;;;;;;36.72;15.63;;;;;;;-1.54;76.97;101119.25;5047725;28;20449;-68
2021/12/23 05:19:27;;;;;;;30.65;14.73;;;;;;;-1.51;76.42;101129.53;5048915;28;20554;-67
2021/12/23 05:21:53;;;;;;;39.17;15.10;;;;;;;-1.28;75.95;101107.31;5047413;28;20131;-67
2021/12/23 05:24:20;;;;;;;41.30;15.25;;;;;;;-1.46;76.22;101107.28;5048145;28;20049;-67
2021/12/23 05:26:46;;;;;;;33.53;15.10;;;;;;;-1.35;76.18;101104.75;5048104;28;20053;-68
2021/12/23 05:29:14;;;;;;;37.58;15.43;;;;;;;-1.21;75.55;101109.06;5045467;28;20073;-68
2021/12/23 05:31:41;;;;;;;37.20;14.25;;;;;;;-1.48;76.05;101098.72;5048314;28;20041;-67
2021/12/23 05:34:07;;;;;;;37.00;15.35;;;;;;;-1.34;75.21;101099.63;5051847;28;20591;-67
2021/12/23 05:36:33;;;;;;;39.08;16.05;;;;;;;-1.33;75.31;101101.31;5047504;28;20049;-67
2021/12/23 05:39:00;;;;;;;42.22;14.70;;;;;;;-1.93;77.59;101109.69;5047874;28;20077;-67
2021/12/23 05:41:27;;;;;;;31.00;14.10;;;;;;;-1.96;78.02;101097.66;5047499;28;20045;-67
2021/12/23 05:43:54;;;;;;;35.33;15.35;;;;;;;-1.68;77.16;101102.94;5043420;28;20041;-68
2021/12/23 05:46:21;;;;;;;37.95;14.88;;;;;;;-1.17;76.17;101090.19;5046900;28;20072;-68
2021/12/23 05:48:48;;;;;;;39.58;15.60;;;;;;;-1.17;75.08;101090.19;5045501;28;20126;-68
2021/12/23 05:51:14;;;;;;;29.45;14.98;;;;;;;-0.98;74.20;101084.22;5045757;28;20068;-68
2021/12/23 05:53:40;;;;;;;37.33;16.05;;;;;;;-1.02;73.92;101082.50;5046884;28;20053;-68
2021/12/23 05:56:07;;;;;;;36.90;15.40;;;;;;;-1.65;76.65;101066.94;5047186;28;20501;-68
2021/12/23 05:58:33;;;;;;;39.17;14.85;;;;;;;-1.49;76.18;101059.28;5047693;28;20138;-68
2021/12/23 06:01:00;;;;;;;40.03;16.58;;;;;;;-1.06;75.05;101072.19;5046717;28;20418;-68
2021/12/23 06:03:28;;;;;;;34.30;14.68;;;;;;;-0.69;73.19;101058.47;5051935;28;20071;-68
2021/12/23 06:05:54;;;;;;;35.92;14.18;;;;;;;-1.31;74.52;101063.59;5047705;28;20072;-68
2021/12/23 06:08:21;;;;;;;30.08;14.43;;;;;;;-1.42;76.03;101065.28;5046962;28;20073;-68
2021/12/23 06:10:47;;;;;;;34.30;14.02;;;;;;;-1.29;74.86;101053.31;5047893;28;20064;-68
2021/12/23 06:13:14;;;;;;;32.70;15.15;;;;;;;-1.36;75.29;101055.00;5048082;28;20114;-68
2021/12/23 06:15:40;;;;;;;36.22;15.45;;;;;;;-1.30;75.24;101044.75;5048003;28;20080;-68
2021/12/23 06:18:06;;;;;;;32.22;14.15;;;;;;;-1.14;75.28;101063.59;5047501;28;20068;-68
2021/12/23 06:20:34;;;;;;;39.78;14.48;;;;;;;-1.08;74.82;101061.91;5047574;28;20494;-68
2021/12/23 06:23:00;;;;;;;40.22;18.38;;;;;;;-0.89;73.56;101062.78;5047523;28;20057;-68
2021/12/23 06:25:26;;;;;;;37.95;15.68;;;;;;;-1.08;74.90;101059.34;5047895;28;20090;-68
2021/12/23 06:27:53;;;;;;;39.10;15.88;;;;;;;-1.25;75.08;101068.75;5044165;28;20131;-68
2021/12/23 06:30:19;;;;;;;34.83;15.20;;;;;;;-1.67;76.97;101073.81;5043525;28;20069;-66
2021/12/23 06:32:50;;;;;;;41.45;15.20;;;;;;;-1.49;76.94;101069.56;5049196;28;20548;-66
2021/12/23 06:35:16;;;;;;;34.08;14.88;;;;;;;-1.34;76.23;101076.47;5047587;28;20048;-67
2021/12/23 06:37:45;;;;;;;35.40;14.95;;;;;;;-1.33;76.18;101052.44;5046921;28;20061;-67
2021/12/23 06:40:12;;;;;;;35.75;14.68;;;;;;;-1.48;76.34;101057.56;5049545;28;20502;-67
2021/12/23 06:42:39;;;;;;;40.03;15.32;;;;;;;-1.39;76.54;101061.84;5050578;28;20061;-67
2021/12/23 06:45:07;;;;;;;39.90;15.95;;;;;;;-1.11;75.72;101063.63;5046425;28;20456;-67
2021/12/23 06:47:33;;;;;;;41.47;16.50;;;;;;;-1.42;76.57;101067.88;5051418;28;20037;-67
2021/12/23 06:50:00;;;;;;;40.40;16.33;;;;;;;-1.19;76.17;101048.19;5050201;28;20424;-67
2021/12/23 06:52:26;;;;;;;37.58;17.35;;;;;;;-1.51;77.09;101042.13;5050313;28;20091;-67
2021/12/23 06:54:56;;;;;;;47.95;16.63;;;;;;;-1.19;76.18;101026.75;5050904;28;20052;-67
2021/12/23 06:57:22;;;;;;;34.03;15.52;;;;;;;-1.07;75.74;101024.16;5050537;28;20049;-68
2021/12/23 06:59:48;;;;;;;48.60;16.02;;;;;;;-1.14;75.40;101013.00;5047641;28;20044;-68
2021/12/23 07:02:15;;;;;;;36.35;16.05;;;;;;;-1.55;76.75;101015.53;5050999;28;20095;-68
2021/12/23 07:04:43;;;;;;;37.85;15.85;;;;;;;-1.39;77.08;100998.41;5054702;28;20041;-68
2021/12/23 07:07:10;;;;;;;38.03;14.80;;;;;;;-1.70;77.29;100979.50;5050576;28;20052;-67
2021/12/23 07:09:38;;;;;;;35.15;15.70;;;;;;;-1.15;76.16;100997.59;5049457;28;20076;-67
2021/12/23 07:12:07;;;;;;;37.75;14.77;;;;;;;-1.38;76.40;100984.72;5045186;28;20115;-67
2021/12/23 07:14:34;;;;;;;38.47;15.07;;;;;;;-1.66;77.99;100976.09;5043929;28;20095;-67
2021/12/23 07:17:00;;;;;;;39.10;15.98;;;;;;;-1.37;77.24;100977.84;5041788;28;20076;-67
2021/12/23 07:19:27;;;;;;;41.75;16.60;;;;;;;-1.06;75.71;100984.69;5047000;28;20098;-67
2021/12/23 07:21:53;;;;;;;39.53;16.55;;;;;;;-0.99;75.33;100982.13;5041295;28;20045;-67
2021/12/23 07:24:20;;;;;;;40.83;16.38;;;;;;;-0.87;74.75;100976.09;5050670;28;20049;-67
2021/12/23 07:26:46;;;;;;;40.00;15.82;;;;;;;-1.05;75.06;100981.28;5050169;28;20712;-68
2021/12/23 07:29:14;;;;;;;38.00;15.93;;;;;;;-1.45;77.27;100995.00;5050350;28;20522;-68
2021/12/23 07:31:41;;;;;;;37.70;17.13;;;;;;;-1.20;76.49;101000.16;5050165;28;20091;-68
2021/12/23 07:34:07;;;;;;;36.55;16.40;;;;;;;-1.17;75.94;100977.00;5053748;28;20045;-68
2021/12/23 07:36:35;;;;;;;34.60;14.30;;;;;;;-0.96;75.23;100981.25;5049784;28;20068;-68
2021/12/23 07:39:02;;;;;;;37.67;16.65;;;;;;;-0.71;74.59;100977.81;5049499;28;20049;-68
2021/12/23 07:41:29;;;;;;;40.58;16.25;;;;;;;-0.53;74.05;100957.16;5049819;28;20578;-67
2021/12/23 07:43:58;;;;;;;35.00;15.45;;;;;;;-0.83;74.85;100961.50;5047505;28;20581;-68
2021/12/23 07:46:27;;;;;;;37.10;15.63;;;;;;;-0.69;74.24;100955.47;5049632;28;20095;-67
2021/12/23 07:48:54;;;;;;;38.20;14.18;;;;;;;-1.03;75.13;100957.25;5049303;28;20493;-67
2021/12/23 07:51:20;;;;;;;42.05;15.73;;;;;;;-0.99;76.42;100951.25;5049790;28;20060;-67
2021/12/23 07:53:47;;;;;;;36.05;14.88;;;;;;;-1.03;75.67;100953.81;5049793;28;20053;-67
2021/12/23 07:56:13;;;;;;;35.25;15.52;;;;;;;-0.95;75.91;100958.94;5050679;28;20127;-67
2021/12/23 07:58:40;;;;;;;42.13;15.63;;;;;;;-0.59;74.33;100962.31;5048707;28;20485;-67
2021/12/23 08:01:06;;;;;;;35.25;15.65;;;;;;;-0.40;73.66;100947.63;5049608;28;20559;-68
2021/12/23 08:03:34;;;;;;;41.33;16.40;;;;;;;-0.58;74.11;100953.72;5052958;28;20086;-67
2021/12/23 08:06:00;;;;;;;37.17;15.50;;;;;;;-1.00;75.50;100944.38;5048555;28;20467;-67
2021/12/23 08:08:27;;;;;;;38.28;15.77;;;;;;;-0.75;75.50;100934.03;5048903;28;20497;-67
2021/12/23 08:10:54;;;;;;;40.67;16.48;;;;;;;-1.04;76.73;100932.41;5047603;28;20049;-67
2021/12/23 08:13:20;;;;;;;34.60;15.13;;;;;;;-1.01;76.13;100934.97;5042036;28;20095;-68
2021/12/23 08:15:47;;;;;;;39.72;16.85;;;;;;;-0.72;75.71;100934.88;5043947;28;20089;-67
2021/12/23 08:18:14;;;;;;;39.42;17.10;;;;;;;-0.71;75.49;100925.44;5044873;28;20118;-68
2021/12/23 08:20:41;;;;;;;38.83;14.98;;;;;;;-0.88;76.02;100922.91;5047638;28;20061;-67
2021/12/23 08:23:08;;;;;;;41.47;16.50;;;;;;;-0.63;74.79;100918.56;5046715;28;20069;-68
2021/12/23 08:25:35;;;;;;;47.17;15.88;;;;;;;-0.91;75.90;100922.91;5046361;28;20522;-68
2021/12/23 08:28:01;;;;;;;41.15;15.82;;;;;;;-1.02;76.77;100916.94;5045441;28;20099;-67
2021/12/23 08:30:28;;;;;;;38.88;15.73;;;;;;;-0.91;76.47;100902.31;5045320;28;20134;-67
2021/12/23 08:32:55;;;;;;;40.22;15.98;;;;;;;-0.96;76.92;100905.78;5047219;28;20045;-68
2021/12/23 08:35:21;;;;;;;27.05;12.48;;;;;;;-1.15;77.17;100908.41;5034108;28;20079;-68
2021/12/23 08:37:50;;;;;;;31.83;15.15;;;;;;;-0.96;76.92;100903.22;5044764;28;20068;-68
2021/12/23 08:40:19;;;;;;;40.67;17.92;;;;;;;-0.93;76.47;100900.63;5046878;28;20419;-68
2021/12/23 08:42:46;;;;;;;38.03;17.05;;;;;;;-0.72;75.75;100880.81;5047457;28;20044;-68
2021/12/23 08:45:13;;;;;;;40.28;15.85;;;;;;;-0.59;75.48;100872.16;5046571;28;20134;-68
2021/12/23 08:47:39;;;;;;;38.90;15.82;;;;;;;-0.16;74.00;100859.94;5046102;28;20128;-68
2021/12/23 08:50:09;;;;;;;38.28;14.55;;;;;;;-0.19;73.82;100848.78;5031761;28;20102;-67
2021/12/23 08:52:35;;;;;;;35.25;15.25;;;;;;;-0.21;74.05;100850.50;5046402;28;20064;-68
2021/12/23 08:55:05;;;;;;;34.42;16.20;;;;;;;-0.61;75.42;100839.56;5045695;28;20076;-67
2021/12/23 08:57:32;;;;;;;31.60;14.67;;;;;;;-0.50;75.82;100828.34;5045082;28;20045;-68
2021/12/23 08:59:58;;;;;;;43.10;15.40;;;;;;;-0.22;74.43;100818.72;5044930;28;20330;-68
2021/12/23 09:02:25;;;;;;;39.00;16.70;;;;;;;-0.56;75.60;100815.53;5045679;28;20049;-67
2021/12/23 09:04:52;;;;;;;34.90;15.93;;;;;;;-0.43;75.00;100812.84;5048360;28;20112;-67
2021/12/23 09:07:18;;;;;;;34.25;15.93;;;;;;;-0.63;75.98;100793.22;5044859;28;20102;-68
2021/12/23 09:09:50;;;;;;;39.25;17.23;;;;;;;-0.39;75.02;100794.78;5046471;28;20048;-67
2021/12/23 09:12:19;;;;;;;38.88;17.60;;;;;;;-0.42;74.87;100781.09;5045825;28;20048;-67
2021/12/23 09:14:45;;;;;;;27.27;11.75;;;;;;;-0.60;74.66;100776.91;5046724;28;20041;-67
2021/12/23 09:17:12;;;;;;;31.80;17.05;;;;;;;-0.44;75.35;100757.91;5045125;28;20045;-67
2021/12/23 09:19:38;;;;;;;41.50;16.73;;;;;;;-0.21;73.96;100766.31;5046572;28;20126;-67
2021/12/23 09:22:05;;;;;;;41.92;17.35;;;;;;;-0.30;73.93;100758.69;5045355;28;20481;-67
2021/12/23 09:24:32;;;;;;;37.90;16.30;;;;;;;-0.76;75.75;100749.53;5045711;28;20064;-67
2021/12/23 09:27:07;;;;;;;39.17;16.77;;;;;;;-0.32;75.70;100734.63;5045520;28;20448;-67
2021/12/23 09:35:05;;;;;;;38.22;14.70;;;;;;;0.24;72.94;100697.19;5049815;28;20512;-67
2021/12/23 09:37:32;;;;;;;35.03;14.60;;;;;;;0.02;72.97;100686.25;5045611;28;20197;-67
2021/12/23 09:40:01;;;;;;;29.40;15.80;;;;;;;0.28;72.26;100697.16;5045527;28;20535;-67
2021/12/23 09:42:30;;;;;;;47.97;17.88;;;;;;;0.34;72.46;100737.47;5043511;28;20060;-67
2021/12/23 09:45:01;;;;;;;40.65;16.45;;;;;;;0.47;72.57;100788.09;5045130;28;20102;-67
2021/12/23 09:47:29;;;;;;;43.85;15.68;;;;;;;0.73;72.18;100827.38;5044936;28;20056;-67
2021/12/23 09:49:57;;;;;;;40.17;16.40;;;;;;;0.76;72.49;100804.13;5044443;28;20735;-66
2021/12/23 09:52:24;;;;;;;39.67;17.90;;;;;;;0.77;72.35;100753.38;5045504;28;20064;-66
2021/12/23 09:54:55;;;;;;;37.28;17.08;;;;;;;0.25;73.90;100748.75;5045315;28;20493;-66
2021/12/23 09:57:22;;;;;;;43.03;18.48;;;;;;;0.24;74.49;100762.50;5045821;28;20045;-66
2021/12/23 09:59:48;;;;;;;39.42;16.52;;;;;;;0.23;75.15;100798.63;5045745;28;20040;-67
2021/12/23 10:02:16;;;;;;;44.63;18.77;;;;;;;-0.08;75.63;100755.06;5045104;28;20041;-67
2021/12/23 10:04:42;;;;;;;42.90;17.70;;;;;;;-0.13;76.72;100764.56;5046784;28;20041;-67
2021/12/23 10:07:09;;;;;;;41.88;17.85;;;;;;;-0.09;76.82;100786.00;5040975;28;20061;-67
2021/12/23 10:09:44;;;;;;;40.45;18.45;;;;;;;-0.02;76.41;100752.44;5042010;28;20096;-67
2021/12/23 10:31:51;;;;;;;40.22;16.45;;;;;;;0.41;74.88;100700.44;5050396;28;20386;-67
2021/12/23 10:37:16;;;;;;;41.08;17.20;;;;;;;0.87;72.77;100660.31;5050589;28;20052;-66
2021/12/23 10:39:44;;;;;;;37.65;17.75;;;;;;;0.56;74.89;100637.47;5051585;28;20094;-65
2021/12/23 10:42:14;;;;;;;38.50;17.52;;;;;;;0.18;75.62;100637.97;5045433;28;20095;-65
2021/12/23 10:44:41;;;;;;;38.28;17.75;;;;;;;0.34;75.77;100596.50;5047034;28;20076;-65
2021/12/23 10:47:09;;;;;;;53.05;22.40;;;;;;;1.00;73.74;100587.84;5049253;28;20056;-65
2021/12/23 10:49:42;;;;;;;40.85;17.33;;;;;;;0.42;74.97;100606.72;5049630;28;20055;-65
2021/12/23 10:52:16;;;;;;;38.83;17.00;;;;;;;0.45;75.73;100606.66;5048572;28;20442;-65
2021/12/23 11:00:24;;;;;;;38.17;16.92;;;;;;;0.65;75.52;100620.19;5042735;28;20052;-68
2021/12/23 11:03:02;;;;;;;37.00;17.13;;;;;;;0.73;74.70;100613.19;5051015;28;20385;-65
2021/12/23 11:05:34;;;;;;;42.10;18.35;;;;;;;0.70;75.17;100592.56;5051834;28;20047;-66
2021/12/23 11:08:12;;;;;;;46.97;19.85;;;;;;;1.03;74.20;100559.41;5050335;28;20099;-65
2021/12/23 11:11:01;;;;;;;41.25;19.00;;;;;;;0.76;74.84;100560.66;5050598;28;20370;-65
2021/12/23 11:27:37;;;;;;;40.08;18.00;;;;;;;1.26;73.90;100537.47;5041264;28;20082;-66
2021/12/23 11:30:51;;;;;;;38.10;18.15;;;;;;;1.73;73.13;100539.22;5049605;28;20048;-65
2021/12/23 11:36:16;;;;;;;44.47;19.20;;;;;;;2.05;71.81;100465.31;5042592;28;20100;-65
2021/12/23 11:39:05;;;;;;;40.45;17.83;;;;;;;2.44;70.61;100488.56;5049752;28;20447;-65
2021/12/23 11:41:35;;;;;;;40.17;18.70;;;;;;;2.59;69.98;100518.44;5049220;28;20041;-65
2021/12/23 11:44:05;;;;;;;37.30;17.75;;;;;;;2.81;69.61;100545.53;5049862;28;20174;-66
2021/12/23 11:46:37;;;;;;;34.67;17.20;;;;;;;2.67;70.15;100568.28;5049396;28;20099;-66
2021/12/23 11:49:07;;;;;;;40.28;20.17;;;;;;;2.79;70.05;100487.78;5049626;28;20049;-66
2021/12/23 11:51:45;;;;;;;39.08;19.67;;;;;;;2.72;70.04;100460.31;5049385;28;20071;-66
2021/12/23 11:54:15;;;;;;;37.45;18.70;;;;;;;3.12;68.78;100461.91;5049698;28;20045;-67
2021/12/23 11:56:46;;;;;;;38.95;19.05;;;;;;;3.27;68.06;100453.75;5048745;28;20442;-66
2021/12/23 11:59:13;;;;;;;;;;;;;;;2.81;69.70;100390.19;5046901;28;20080;-66
2021/12/23 12:01:43;;;;;;;37.75;18.27;;;;;;;2.68;70.43;100435.41;5049367;28;19967;-66
2021/12/23 12:04:13;;;;;;;38.28;19.17;;;;;;;2.77;70.71;100484.34;5052689;28;20094;-66
2021/12/23 12:06:43;;;;;;;43.67;18.73;;;;;;;3.05;69.81;100460.38;5049556;28;20048;-67
2021/12/23 12:09:16;;;;;;;36.38;17.23;;;;;;;2.70;71.56;100469.84;5049783;28;20110;-66